sensor_id;sensor_type;location;lat;lon;timestamp;temperature;humidity
19755;DHT22;10036;47.812;9.274;2023-01-16T00:01:26;2.30;99.90
19755;DHT22;10036;47.812;9.274;2023-01-16T00:03:54;2.30;99.90
19755;DHT22;10036;47.812;9.274;2023-01-16T00:06:21;2.40;99.90
19755;DHT22;10036;47.812;9.274;2023-01-16T00:08:48;2.30;99.90
19755;DHT22;10036;47.812;9.274;2023-01-16T00:11:16;2.30;99.90
19755;DHT22;10036;47.812;9.274;2023-01-16T00:13:43;2.30;99.90
19755;DHT22;10036;47.812;9.274;2023-01-16T00:16:11;2.30;99.90
19755;DHT22;10036;47.812;9.274;2023-01-16T00:18:39;2.20;99.90
19755;DHT22;10036;47.812;9.274;2023-01-16T00:21:07;2.40;99.90
19755;DHT22;10036;47.812;9.274;2023-01-16T00:23:35;2.20;99.90
19755;DHT22;10036;47.812;9.274;2023-01-16T00:26:05;2.30;99.90
19755;DHT22;10036;47.812;9.274;2023-01-16T00:28:32;2.10;99.90
19755;DHT22;10036;47.812;9.274;2023-01-16T00:30:58;1.90;99.90
19755;DHT22;10036;47.812;9.274;2023-01-16T00:33:27;2.00;99.90
19755;DHT22;10036;47.812;9.274;2023-01-16T00:35:54;1.90;99.90
19755;DHT22;10036;47.812;9.274;2023-01-16T00:38:21;1.80;99.90
19755;DHT22;10036;47.812;9.274;2023-01-16T00:40:48;1.70;99.90
19755;DHT22;10036;47.812;9.274;2023-01-16T00:43:14;1.70;99.90
19755;DHT22;10036;47.812;9.274;2023-01-16T00:45:41;1.60;99.90
19755;DHT22;10036;47.812;9.274;2023-01-16T00:48:08;1.70;99.90
19755;DHT22;10036;47.812;9.274;2023-01-16T00:50:37;1.50;99.90
19755;DHT22;10036;47.812;9.274;2023-01-16T00:53:04;1.50;99.90
19755;DHT22;10036;47.812;9.274;2023-01-16T00:55:32;1.50;99.90
19755;DHT22;10036;47.812;9.274;2023-01-16T00:58:01;1.60;99.90
19755;DHT22;10036;47.812;9.274;2023-01-16T01:00:28;1.40;99.90
19755;DHT22;10036;47.812;9.274;2023-01-16T01:02:55;1.30;99.90
19755;DHT22;10036;47.812;9.274;2023-01-16T01:05:22;1.40;99.90
19755;DHT22;10036;47.812;9.274;2023-01-16T01:07:50;1.30;99.90
19755;DHT22;10036;47.812;9.274;2023-01-16T01:10:17;1.50;99.90
19755;DHT22;10036;47.812;9.274;2023-01-16T01:12:44;1.50;99.90
19755;DHT22;10036;47.812;9.274;2023-01-16T01:15:12;1.60;99.90
19755;DHT22;10036;47.812;9.274;2023-01-16T01:17:39;1.70;99.90
19755;DHT22;10036;47.812;9.274;2023-01-16T01:20:07;1.80;99.90
19755;DHT22;10036;47.812;9.274;2023-01-16T01:22:34;1.80;99.90
19755;DHT22;10036;47.812;9.274;2023-01-16T01:25:05;1.70;99.90
19755;DHT22;10036;47.812;9.274;2023-01-16T01:27:32;1.70;99.90
19755;DHT22;10036;47.812;9.274;2023-01-16T01:29:59;1.60;99.90
19755;DHT22;10036;47.812;9.274;2023-01-16T01:32:26;1.50;99.90
19755;DHT22;10036;47.812;9.274;2023-01-16T01:34:53;1.50;99.90
19755;DHT22;10036;47.812;9.274;2023-01-16T01:37:20;1.20;99.90
19755;DHT22;10036;47.812;9.274;2023-01-16T01:39:47;1.20;99.90
19755;DHT22;10036;47.812;9.274;2023-01-16T01:42:16;1.10;99.90
19755;DHT22;10036;47.812;9.274;2023-01-16T01:45:05;1.00;99.90
19755;DHT22;10036;47.812;9.274;2023-01-16T01:47:35;1.00;99.90
19755;DHT22;10036;47.812;9.274;2023-01-16T01:50:11;0.90;99.90
19755;DHT22;10036;47.812;9.274;2023-01-16T01:52:40;0.90;99.90
19755;DHT22;10036;47.812;9.274;2023-01-16T01:55:10;0.80;99.90
19755;DHT22;10036;47.812;9.274;2023-01-16T01:57:43;0.70;99.90
19755;DHT22;10036;47.812;9.274;2023-01-16T02:00:16;0.70;99.90
19755;DHT22;10036;47.812;9.274;2023-01-16T02:02:46;0.60;99.90
19755;DHT22;10036;47.812;9.274;2023-01-16T02:05:18;0.70;99.90
19755;DHT22;10036;47.812;9.274;2023-01-16T02:07:47;0.70;99.90
19755;DHT22;10036;47.812;9.274;2023-01-16T02:10:20;0.60;99.90
19755;DHT22;10036;47.812;9.274;2023-01-16T02:12:50;0.60;99.90
19755;DHT22;10036;47.812;9.274;2023-01-16T02:15:19;0.60;99.90
19755;DHT22;10036;47.812;9.274;2023-01-16T02:17:48;0.60;99.90
19755;DHT22;10036;47.812;9.274;2023-01-16T02:20:39;0.60;99.90
19755;DHT22;10036;47.812;9.274;2023-01-16T02:26:41;0.50;99.90
19755;DHT22;10036;47.812;9.274;2023-01-16T02:29:35;0.60;99.90
19755;DHT22;10036;47.812;9.274;2023-01-16T02:32:22;0.70;99.90
19755;DHT22;10036;47.812;9.274;2023-01-16T02:35:06;0.80;99.90
19755;DHT22;10036;47.812;9.274;2023-01-16T02:37:44;0.90;99.90
19755;DHT22;10036;47.812;9.274;2023-01-16T02:40:21;0.90;99.90
19755;DHT22;10036;47.812;9.274;2023-01-16T02:42:58;0.90;99.90
19755;DHT22;10036;47.812;9.274;2023-01-16T02:45:36;0.90;99.90
19755;DHT22;10036;47.812;9.274;2023-01-16T02:48:12;0.90;99.90
19755;DHT22;10036;47.812;9.274;2023-01-16T02:50:44;0.80;99.90
19755;DHT22;10036;47.812;9.274;2023-01-16T02:53:21;0.80;99.90
19755;DHT22;10036;47.812;9.274;2023-01-16T02:55:52;0.80;99.90
19755;DHT22;10036;47.812;9.274;2023-01-16T02:58:21;0.80;99.90
19755;DHT22;10036;47.812;9.274;2023-01-16T03:00:50;1.20;99.90
19755;DHT22;10036;47.812;9.274;2023-01-16T03:03:37;0.70;99.90
19755;DHT22;10036;47.812;9.274;2023-01-16T03:06:16;0.70;99.90
19755;DHT22;10036;47.812;9.274;2023-01-16T03:08:46;0.80;99.90
19755;DHT22;10036;47.812;9.274;2023-01-16T03:11:19;0.80;99.90
19755;DHT22;10036;47.812;9.274;2023-01-16T03:14:05;1.00;99.90
19755;DHT22;10036;47.812;9.274;2023-01-16T03:16:39;0.90;99.90
19755;DHT22;10036;47.812;9.274;2023-01-16T03:19:17;0.90;99.90
19755;DHT22;10036;47.812;9.274;2023-01-16T03:21:54;0.90;99.90
19755;DHT22;10036;47.812;9.274;2023-01-16T03:24:34;0.90;99.90
19755;DHT22;10036;47.812;9.274;2023-01-16T03:27:08;0.80;99.90
19755;DHT22;10036;47.812;9.274;2023-01-16T03:29:43;0.80;99.90
19755;DHT22;10036;47.812;9.274;2023-01-16T03:32:20;0.80;99.90
19755;DHT22;10036;47.812;9.274;2023-01-16T03:34:58;0.90;99.90
19755;DHT22;10036;47.812;9.274;2023-01-16T03:37:31;0.80;99.90
19755;DHT22;10036;47.812;9.274;2023-01-16T03:40:01;0.80;99.90
19755;DHT22;10036;47.812;9.274;2023-01-16T03:42:33;0.60;99.90
19755;DHT22;10036;47.812;9.274;2023-01-16T03:45:05;0.90;99.90
19755;DHT22;10036;47.812;9.274;2023-01-16T03:47:38;0.60;99.90
19755;DHT22;10036;47.812;9.274;2023-01-16T03:50:11;0.40;99.90
19755;DHT22;10036;47.812;9.274;2023-01-16T03:52:41;0.30;99.90
19755;DHT22;10036;47.812;9.274;2023-01-16T03:55:15;0.20;99.90
19755;DHT22;10036;47.812;9.274;2023-01-16T03:57:47;0.40;99.90
19755;DHT22;10036;47.812;9.274;2023-01-16T04:00:17;0.40;99.90
19755;DHT22;10036;47.812;9.274;2023-01-16T04:02:51;0.20;99.90
19755;DHT22;10036;47.812;9.274;2023-01-16T04:05:26;0.30;99.90
19755;DHT22;10036;47.812;9.274;2023-01-16T04:07:56;0.20;99.90
19755;DHT22;10036;47.812;9.274;2023-01-16T04:10:26;0.10;99.90
19755;DHT22;10036;47.812;9.274;2023-01-16T04:12:57;0.20;99.90
19755;DHT22;10036;47.812;9.274;2023-01-16T04:15:27;0.40;99.90
19755;DHT22;10036;47.812;9.274;2023-01-16T04:17:56;0.50;99.90
19755;DHT22;10036;47.812;9.274;2023-01-16T04:20:27;0.60;99.90
19755;DHT22;10036;47.812;9.274;2023-01-16T04:22:55;0.50;99.90
19755;DHT22;10036;47.812;9.274;2023-01-16T04:25:22;0.50;99.90
19755;DHT22;10036;47.812;9.274;2023-01-16T04:27:49;0.20;99.90
19755;DHT22;10036;47.812;9.274;2023-01-16T04:30:17;0.10;99.90
19755;DHT22;10036;47.812;9.274;2023-01-16T04:32:44;0.20;99.90
19755;DHT22;10036;47.812;9.274;2023-01-16T04:35:11;0.20;99.90
19755;DHT22;10036;47.812;9.274;2023-01-16T04:37:39;0.30;99.90
19755;DHT22;10036;47.812;9.274;2023-01-16T04:40:08;0.10;99.90
19755;DHT22;10036;47.812;9.274;2023-01-16T04:42:36;0.10;99.90
19755;DHT22;10036;47.812;9.274;2023-01-16T04:45:04;-0.10;99.90
19755;DHT22;10036;47.812;9.274;2023-01-16T04:47:31;-0.10;99.90
19755;DHT22;10036;47.812;9.274;2023-01-16T04:49:58;-0.20;99.90
19755;DHT22;10036;47.812;9.274;2023-01-16T04:52:25;-0.20;99.90
19755;DHT22;10036;47.812;9.274;2023-01-16T04:54:54;-0.20;99.90
19755;DHT22;10036;47.812;9.274;2023-01-16T04:57:21;-0.10;99.90
19755;DHT22;10036;47.812;9.274;2023-01-16T04:59:48;-0.10;99.90
19755;DHT22;10036;47.812;9.274;2023-01-16T05:02:15;0.00;99.90
19755;DHT22;10036;47.812;9.274;2023-01-16T05:04:42;-0.10;99.90
19755;DHT22;10036;47.812;9.274;2023-01-16T05:07:09;0.10;99.90
19755;DHT22;10036;47.812;9.274;2023-01-16T05:12:18;0.20;99.90
19755;DHT22;10036;47.812;9.274;2023-01-16T05:14:45;0.10;99.90
19755;DHT22;10036;47.812;9.274;2023-01-16T05:17:12;0.00;99.90
19755;DHT22;10036;47.812;9.274;2023-01-16T05:19:39;-0.20;99.90
19755;DHT22;10036;47.812;9.274;2023-01-16T05:22:06;-0.20;99.90
19755;DHT22;10036;47.812;9.274;2023-01-16T05:24:32;-0.40;99.90
19755;DHT22;10036;47.812;9.274;2023-01-16T05:26:59;-0.50;99.90
19755;DHT22;10036;47.812;9.274;2023-01-16T05:29:27;-0.50;99.90
19755;DHT22;10036;47.812;9.274;2023-01-16T05:31:54;-0.50;99.90
19755;DHT22;10036;47.812;9.274;2023-01-16T05:34:21;-0.60;99.90
19755;DHT22;10036;47.812;9.274;2023-01-16T05:36:48;-0.40;99.90
19755;DHT22;10036;47.812;9.274;2023-01-16T05:39:15;-0.30;99.90
19755;DHT22;10036;47.812;9.274;2023-01-16T05:41:42;-0.20;99.90
19755;DHT22;10036;47.812;9.274;2023-01-16T05:44:09;-0.30;99.90
19755;DHT22;10036;47.812;9.274;2023-01-16T05:46:37;-0.20;99.90
19755;DHT22;10036;47.812;9.274;2023-01-16T05:49:04;-0.20;99.90
19755;DHT22;10036;47.812;9.274;2023-01-16T05:51:31;-0.20;99.90
19755;DHT22;10036;47.812;9.274;2023-01-16T05:53:57;-0.10;99.90
19755;DHT22;10036;47.812;9.274;2023-01-16T05:56:24;-0.10;99.90
19755;DHT22;10036;47.812;9.274;2023-01-16T05:58:52;-0.10;99.90
19755;DHT22;10036;47.812;9.274;2023-01-16T06:01:19;-0.20;99.90
19755;DHT22;10036;47.812;9.274;2023-01-16T06:03:47;-0.30;99.90
19755;DHT22;10036;47.812;9.274;2023-01-16T06:06:14;-0.50;99.90
19755;DHT22;10036;47.812;9.274;2023-01-16T06:08:41;-0.40;99.90
19755;DHT22;10036;47.812;9.274;2023-01-16T06:11:08;-0.50;99.90
19755;DHT22;10036;47.812;9.274;2023-01-16T06:13:35;-0.40;99.90
19755;DHT22;10036;47.812;9.274;2023-01-16T06:16:02;-0.40;99.90
19755;DHT22;10036;47.812;9.274;2023-01-16T06:18:28;-0.50;99.90
19755;DHT22;10036;47.812;9.274;2023-01-16T06:20:57;-0.60;99.90
19755;DHT22;10036;47.812;9.274;2023-01-16T06:23:23;-0.70;99.90
19755;DHT22;10036;47.812;9.274;2023-01-16T06:25:50;-0.60;99.90
19755;DHT22;10036;47.812;9.274;2023-01-16T06:28:17;-0.60;99.90
19755;DHT22;10036;47.812;9.274;2023-01-16T06:30:44;-0.80;99.90
19755;DHT22;10036;47.812;9.274;2023-01-16T06:33:11;-0.90;99.90
19755;DHT22;10036;47.812;9.274;2023-01-16T06:35:38;-0.80;99.90
19755;DHT22;10036;47.812;9.274;2023-01-16T06:38:06;-0.90;99.90
19755;DHT22;10036;47.812;9.274;2023-01-16T06:40:33;-1.00;99.90
19755;DHT22;10036;47.812;9.274;2023-01-16T06:42:59;-1.10;99.90
19755;DHT22;10036;47.812;9.274;2023-01-16T06:45:26;-0.90;99.90
19755;DHT22;10036;47.812;9.274;2023-01-16T06:47:53;-0.70;99.90
19755;DHT22;10036;47.812;9.274;2023-01-16T06:50:20;-0.70;99.90
19755;DHT22;10036;47.812;9.274;2023-01-16T06:52:47;-0.60;99.90
19755;DHT22;10036;47.812;9.274;2023-01-16T06:55:16;-0.60;99.90
19755;DHT22;10036;47.812;9.274;2023-01-16T06:57:43;-0.70;99.90
19755;DHT22;10036;47.812;9.274;2023-01-16T07:00:11;-0.70;99.90
19755;DHT22;10036;47.812;9.274;2023-01-16T07:02:38;-0.80;99.90
19755;DHT22;10036;47.812;9.274;2023-01-16T07:05:06;-0.70;99.90
19755;DHT22;10036;47.812;9.274;2023-01-16T07:07:33;-0.80;99.90
19755;DHT22;10036;47.812;9.274;2023-01-16T07:10:01;-0.60;99.90
19755;DHT22;10036;47.812;9.274;2023-01-16T07:12:29;-0.70;99.90
19755;DHT22;10036;47.812;9.274;2023-01-16T07:14:56;-0.80;99.90
19755;DHT22;10036;47.812;9.274;2023-01-16T07:17:40;-0.70;99.90
19755;DHT22;10036;47.812;9.274;2023-01-16T07:20:24;-0.60;99.90
19755;DHT22;10036;47.812;9.274;2023-01-16T07:23:16;-0.50;99.90
19755;DHT22;10036;47.812;9.274;2023-01-16T07:25:44;-0.40;99.90
19755;DHT22;10036;47.812;9.274;2023-01-16T07:28:13;-0.30;99.90
19755;DHT22;10036;47.812;9.274;2023-01-16T07:30:40;-0.40;99.90
19755;DHT22;10036;47.812;9.274;2023-01-16T07:33:07;-0.50;99.90
19755;DHT22;10036;47.812;9.274;2023-01-16T07:35:33;-0.30;99.90
19755;DHT22;10036;47.812;9.274;2023-01-16T07:38:00;-0.30;99.90
19755;DHT22;10036;47.812;9.274;2023-01-16T07:40:27;-0.20;99.90
19755;DHT22;10036;47.812;9.274;2023-01-16T07:42:54;-0.20;99.90
19755;DHT22;10036;47.812;9.274;2023-01-16T07:45:22;-0.10;99.90
19755;DHT22;10036;47.812;9.274;2023-01-16T07:47:49;-0.10;99.90
19755;DHT22;10036;47.812;9.274;2023-01-16T07:50:16;-0.10;99.90
19755;DHT22;10036;47.812;9.274;2023-01-16T07:52:43;0.00;99.90
19755;DHT22;10036;47.812;9.274;2023-01-16T07:55:11;0.00;99.90
19755;DHT22;10036;47.812;9.274;2023-01-16T07:57:39;0.00;99.90
19755;DHT22;10036;47.812;9.274;2023-01-16T08:00:11;-0.10;99.90
19755;DHT22;10036;47.812;9.274;2023-01-16T08:02:40;-0.10;99.90
19755;DHT22;10036;47.812;9.274;2023-01-16T08:05:09;-0.10;99.90
19755;DHT22;10036;47.812;9.274;2023-01-16T08:07:36;-0.10;99.90
19755;DHT22;10036;47.812;9.274;2023-01-16T08:10:03;0.00;99.90
19755;DHT22;10036;47.812;9.274;2023-01-16T08:12:30;0.00;99.90
19755;DHT22;10036;47.812;9.274;2023-01-16T08:14:57;0.00;99.90
19755;DHT22;10036;47.812;9.274;2023-01-16T08:17:24;0.00;99.90
19755;DHT22;10036;47.812;9.274;2023-01-16T08:19:52;0.10;99.90
19755;DHT22;10036;47.812;9.274;2023-01-16T08:22:19;0.10;99.90
19755;DHT22;10036;47.812;9.274;2023-01-16T08:24:46;0.20;99.90
19755;DHT22;10036;47.812;9.274;2023-01-16T08:27:12;0.20;99.90
19755;DHT22;10036;47.812;9.274;2023-01-16T08:29:39;0.30;99.90
19755;DHT22;10036;47.812;9.274;2023-01-16T08:32:06;0.40;99.90
19755;DHT22;10036;47.812;9.274;2023-01-16T08:34:35;0.40;99.90
19755;DHT22;10036;47.812;9.274;2023-01-16T08:37:03;0.40;99.90
19755;DHT22;10036;47.812;9.274;2023-01-16T08:39:30;0.50;99.90
19755;DHT22;10036;47.812;9.274;2023-01-16T08:41:57;0.50;99.90
19755;DHT22;10036;47.812;9.274;2023-01-16T08:44:41;0.50;99.90
19755;DHT22;10036;47.812;9.274;2023-01-16T08:47:26;0.60;99.90
19755;DHT22;10036;47.812;9.274;2023-01-16T08:50:12;0.70;99.90
19755;DHT22;10036;47.812;9.274;2023-01-16T08:52:59;0.80;99.90
19755;DHT22;10036;47.812;9.274;2023-01-16T08:55:26;0.80;99.90
19755;DHT22;10036;47.812;9.274;2023-01-16T08:57:52;0.80;99.90
19755;DHT22;10036;47.812;9.274;2023-01-16T09:00:21;0.80;99.90
19755;DHT22;10036;47.812;9.274;2023-01-16T09:02:48;0.90;99.90
19755;DHT22;10036;47.812;9.274;2023-01-16T09:05:14;0.90;99.90
19755;DHT22;10036;47.812;9.274;2023-01-16T09:07:41;1.00;99.90
19755;DHT22;10036;47.812;9.274;2023-01-16T09:10:11;1.20;99.90
19755;DHT22;10036;47.812;9.274;2023-01-16T09:12:38;1.20;99.90
19755;DHT22;10036;47.812;9.274;2023-01-16T09:15:23;1.30;99.90
19755;DHT22;10036;47.812;9.274;2023-01-16T09:17:50;1.40;99.90
19755;DHT22;10036;47.812;9.274;2023-01-16T09:20:17;1.50;99.90
19755;DHT22;10036;47.812;9.274;2023-01-16T09:22:45;1.50;99.90
19755;DHT22;10036;47.812;9.274;2023-01-16T09:25:13;1.50;99.90
19755;DHT22;10036;47.812;9.274;2023-01-16T09:27:40;1.50;99.90
19755;DHT22;10036;47.812;9.274;2023-01-16T09:30:08;1.50;99.90
19755;DHT22;10036;47.812;9.274;2023-01-16T09:32:35;1.60;99.90
19755;DHT22;10036;47.812;9.274;2023-01-16T09:35:02;1.60;99.90
19755;DHT22;10036;47.812;9.274;2023-01-16T09:37:28;1.70;99.90
19755;DHT22;10036;47.812;9.274;2023-01-16T09:39:55;1.50;99.90
19755;DHT22;10036;47.812;9.274;2023-01-16T09:45:43;1.40;99.90
19755;DHT22;10036;47.812;9.274;2023-01-16T09:48:15;1.50;99.90
19755;DHT22;10036;47.812;9.274;2023-01-16T09:50:48;1.70;99.90
19755;DHT22;10036;47.812;9.274;2023-01-16T09:53:19;1.70;99.90
19755;DHT22;10036;47.812;9.274;2023-01-16T09:56:08;1.70;99.90
19755;DHT22;10036;47.812;9.274;2023-01-16T09:59:02;1.80;99.90
19755;DHT22;10036;47.812;9.274;2023-01-16T10:01:38;1.90;99.90
19755;DHT22;10036;47.812;9.274;2023-01-16T10:04:14;1.90;99.90
19755;DHT22;10036;47.812;9.274;2023-01-16T10:06:51;1.90;99.90
19755;DHT22;10036;47.812;9.274;2023-01-16T10:09:27;1.90;99.90
19755;DHT22;10036;47.812;9.274;2023-01-16T10:11:58;1.80;99.90
19755;DHT22;10036;47.812;9.274;2023-01-16T10:14:44;1.80;99.90
19755;DHT22;10036;47.812;9.274;2023-01-16T10:17:20;1.80;99.90
19755;DHT22;10036;47.812;9.274;2023-01-16T10:20:13;1.90;99.90
19755;DHT22;10036;47.812;9.274;2023-01-16T10:22:54;1.90;99.90
19755;DHT22;10036;47.812;9.274;2023-01-16T10:25:28;1.90;99.90
19755;DHT22;10036;47.812;9.274;2023-01-16T10:28:04;1.90;99.90
19755;DHT22;10036;47.812;9.274;2023-01-16T10:30:38;2.00;99.90
19755;DHT22;10036;47.812;9.274;2023-01-16T10:33:13;2.10;99.90
19755;DHT22;10036;47.812;9.274;2023-01-16T10:35:43;2.10;99.90
19755;DHT22;10036;47.812;9.274;2023-01-16T10:38:21;2.10;99.90
19755;DHT22;10036;47.812;9.274;2023-01-16T10:40:52;2.10;99.90
19755;DHT22;10036;47.812;9.274;2023-01-16T10:43:29;2.10;99.90
19755;DHT22;10036;47.812;9.274;2023-01-16T10:46:20;2.20;99.90
19755;DHT22;10036;47.812;9.274;2023-01-16T10:49:07;2.10;99.90
19755;DHT22;10036;47.812;9.274;2023-01-16T10:51:54;2.10;99.90
19755;DHT22;10036;47.812;9.274;2023-01-16T10:54:21;2.10;99.90
19755;DHT22;10036;47.812;9.274;2023-01-16T10:56:48;2.10;99.90
19755;DHT22;10036;47.812;9.274;2023-01-16T10:59:15;2.10;99.90
19755;DHT22;10036;47.812;9.274;2023-01-16T11:01:44;2.10;99.90
19755;DHT22;10036;47.812;9.274;2023-01-16T11:04:12;2.20;99.90
19755;DHT22;10036;47.812;9.274;2023-01-16T11:06:39;2.20;99.90
19755;DHT22;10036;47.812;9.274;2023-01-16T11:09:17;2.30;99.90
19755;DHT22;10036;47.812;9.274;2023-01-16T11:11:45;2.30;99.90
19755;DHT22;10036;47.812;9.274;2023-01-16T11:14:32;2.30;99.90
19755;DHT22;10036;47.812;9.274;2023-01-16T11:17:26;2.30;99.90
19755;DHT22;10036;47.812;9.274;2023-01-16T11:20:16;2.40;99.90
19755;DHT22;10036;47.812;9.274;2023-01-16T11:22:47;2.40;99.90
19755;DHT22;10036;47.812;9.274;2023-01-16T11:25:16;2.40;99.90
19755;DHT22;10036;47.812;9.274;2023-01-16T11:27:46;2.40;99.90
19755;DHT22;10036;47.812;9.274;2023-01-16T11:30:17;2.50;99.90
19755;DHT22;10036;47.812;9.274;2023-01-16T11:32:47;2.50;99.90
19755;DHT22;10036;47.812;9.274;2023-01-16T11:35:17;2.50;99.90
19755;DHT22;10036;47.812;9.274;2023-01-16T11:37:45;2.60;99.90
19755;DHT22;10036;47.812;9.274;2023-01-16T11:40:18;2.60;99.90
19755;DHT22;10036;47.812;9.274;2023-01-16T11:42:57;2.60;99.90
19755;DHT22;10036;47.812;9.274;2023-01-16T11:45:44;2.50;99.90
19755;DHT22;10036;47.812;9.274;2023-01-16T11:48:36;2.40;99.90
19755;DHT22;10036;47.812;9.274;2023-01-16T11:51:06;2.40;99.90
19755;DHT22;10036;47.812;9.274;2023-01-16T11:53:34;2.40;99.90
19755;DHT22;10036;47.812;9.274;2023-01-16T11:56:40;2.40;99.90
19755;DHT22;10036;47.812;9.274;2023-01-16T11:59:27;2.50;99.90
19755;DHT22;10036;47.812;9.274;2023-01-16T12:02:06;2.50;99.90
19755;DHT22;10036;47.812;9.274;2023-01-16T12:04:50;2.50;99.90
19755;DHT22;10036;47.812;9.274;2023-01-16T12:07:40;2.40;99.90
19755;DHT22;10036;47.812;9.274;2023-01-16T12:10:21;2.40;99.90
19755;DHT22;10036;47.812;9.274;2023-01-16T12:12:56;2.50;99.90
19755;DHT22;10036;47.812;9.274;2023-01-16T12:15:48;2.50;99.90
19755;DHT22;10036;47.812;9.274;2023-01-16T12:18:22;2.50;99.90
19755;DHT22;10036;47.812;9.274;2023-01-16T12:20:57;2.60;99.90
19755;DHT22;10036;47.812;9.274;2023-01-16T12:23:47;2.60;99.90
19755;DHT22;10036;47.812;9.274;2023-01-16T12:26:20;2.60;99.90
19755;DHT22;10036;47.812;9.274;2023-01-16T12:28:59;2.60;99.90
19755;DHT22;10036;47.812;9.274;2023-01-16T12:31:38;2.60;99.90
19755;DHT22;10036;47.812;9.274;2023-01-16T12:37:24;2.60;99.90
19755;DHT22;10036;47.812;9.274;2023-01-16T12:39:59;2.70;99.90
19755;DHT22;10036;47.812;9.274;2023-01-16T12:42:39;2.60;99.90
19755;DHT22;10036;47.812;9.274;2023-01-16T12:45:33;2.60;99.90
19755;DHT22;10036;47.812;9.274;2023-01-16T12:48:14;2.60;99.90
19755;DHT22;10036;47.812;9.274;2023-01-16T12:50:56;2.60;99.90
19755;DHT22;10036;47.812;9.274;2023-01-16T12:53:55;2.70;99.90
19755;DHT22;10036;47.812;9.274;2023-01-16T12:56:35;2.70;99.90
19755;DHT22;10036;47.812;9.274;2023-01-16T12:59:12;2.70;99.90
19755;DHT22;10036;47.812;9.274;2023-01-16T13:01:42;2.70;99.90
19755;DHT22;10036;47.812;9.274;2023-01-16T13:04:15;2.70;99.90
19755;DHT22;10036;47.812;9.274;2023-01-16T13:06:47;2.80;99.90
19755;DHT22;10036;47.812;9.274;2023-01-16T13:09:21;2.90;99.90
19755;DHT22;10036;47.812;9.274;2023-01-16T13:12:00;3.00;99.90
19755;DHT22;10036;47.812;9.274;2023-01-16T13:14:51;3.20;99.90
19755;DHT22;10036;47.812;9.274;2023-01-16T13:17:22;3.00;99.90
19755;DHT22;10036;47.812;9.274;2023-01-16T13:19:51;3.00;99.90
19755;DHT22;10036;47.812;9.274;2023-01-16T13:22:21;3.00;99.90
19755;DHT22;10036;47.812;9.274;2023-01-16T13:24:55;3.00;99.90
19755;DHT22;10036;47.812;9.274;2023-01-16T13:27:31;3.10;99.90
19755;DHT22;10036;47.812;9.274;2023-01-16T13:30:03;3.10;99.90
19755;DHT22;10036;47.812;9.274;2023-01-16T13:32:33;3.30;99.90
19755;DHT22;10036;47.812;9.274;2023-01-16T13:35:06;3.30;99.90
19755;DHT22;10036;47.812;9.274;2023-01-16T13:37:49;3.30;99.90
19755;DHT22;10036;47.812;9.274;2023-01-16T13:40:48;3.30;99.90
19755;DHT22;10036;47.812;9.274;2023-01-16T13:43:21;3.30;99.90
19755;DHT22;10036;47.812;9.274;2023-01-16T13:46:08;3.40;99.90
19755;DHT22;10036;47.812;9.274;2023-01-16T13:48:37;3.30;99.90
19755;DHT22;10036;47.812;9.274;2023-01-16T13:51:11;3.30;99.90
19755;DHT22;10036;47.812;9.274;2023-01-16T13:53:40;3.30;99.90
19755;DHT22;10036;47.812;9.274;2023-01-16T13:56:12;3.20;99.90
19755;DHT22;10036;47.812;9.274;2023-01-16T13:58:40;3.20;99.90
19755;DHT22;10036;47.812;9.274;2023-01-16T14:01:33;3.20;99.90
19755;DHT22;10036;47.812;9.274;2023-01-16T14:04:27;3.20;99.90
19755;DHT22;10036;47.812;9.274;2023-01-16T14:06:56;3.10;99.90
19755;DHT22;10036;47.812;9.274;2023-01-16T14:09:58;3.10;99.90
19755;DHT22;10036;47.812;9.274;2023-01-16T14:12:34;3.10;99.90
19755;DHT22;10036;47.812;9.274;2023-01-16T14:15:17;3.10;99.90
19755;DHT22;10036;47.812;9.274;2023-01-16T14:18:18;3.10;99.90
19755;DHT22;10036;47.812;9.274;2023-01-16T14:21:02;3.00;99.90
19755;DHT22;10036;47.812;9.274;2023-01-16T14:23:33;3.00;99.90
19755;DHT22;10036;47.812;9.274;2023-01-16T14:26:21;2.90;99.90
19755;DHT22;10036;47.812;9.274;2023-01-16T14:28:49;2.90;99.90
19755;DHT22;10036;47.812;9.274;2023-01-16T14:31:24;2.90;99.90
19755;DHT22;10036;47.812;9.274;2023-01-16T14:33:56;2.90;99.90
19755;DHT22;10036;47.812;9.274;2023-01-16T14:36:24;2.90;99.90
19755;DHT22;10036;47.812;9.274;2023-01-16T14:38:53;2.90;99.90
19755;DHT22;10036;47.812;9.274;2023-01-16T14:41:26;2.90;99.90
19755;DHT22;10036;47.812;9.274;2023-01-16T14:44:15;2.90;99.90
19755;DHT22;10036;47.812;9.274;2023-01-16T14:47:09;2.90;99.90
19755;DHT22;10036;47.812;9.274;2023-01-16T14:50:05;3.00;99.90
19755;DHT22;10036;47.812;9.274;2023-01-16T14:53:04;2.90;99.90
19755;DHT22;10036;47.812;9.274;2023-01-16T14:55:58;2.90;99.90
19755;DHT22;10036;47.812;9.274;2023-01-16T14:58:33;2.90;99.90
19755;DHT22;10036;47.812;9.274;2023-01-16T15:01:02;2.90;99.90
19755;DHT22;10036;47.812;9.274;2023-01-16T15:04:00;2.90;99.90
19755;DHT22;10036;47.812;9.274;2023-01-16T15:06:34;2.80;99.90
19755;DHT22;10036;47.812;9.274;2023-01-16T15:09:02;2.80;99.90
19755;DHT22;10036;47.812;9.274;2023-01-16T15:11:31;2.80;99.90
19755;DHT22;10036;47.812;9.274;2023-01-16T15:14:05;2.80;99.90
19755;DHT22;10036;47.812;9.274;2023-01-16T15:17:13;2.80;99.90
19755;DHT22;10036;47.812;9.274;2023-01-16T15:20:05;2.80;99.90
19755;DHT22;10036;47.812;9.274;2023-01-16T15:22:53;2.80;99.90
19755;DHT22;10036;47.812;9.274;2023-01-16T15:25:37;2.80;99.90
19755;DHT22;10036;47.812;9.274;2023-01-16T15:28:11;2.80;99.90
19755;DHT22;10036;47.812;9.274;2023-01-16T15:30:40;2.80;99.90
19755;DHT22;10036;47.812;9.274;2023-01-16T15:33:22;2.80;99.90
19755;DHT22;10036;47.812;9.274;2023-01-16T15:36:23;2.80;99.90
19755;DHT22;10036;47.812;9.274;2023-01-16T15:38:54;2.70;99.90
19755;DHT22;10036;47.812;9.274;2023-01-16T15:41:25;2.70;99.90
19755;DHT22;10036;47.812;9.274;2023-01-16T15:44:13;2.70;99.90
19755;DHT22;10036;47.812;9.274;2023-01-16T15:47:24;2.70;99.90
19755;DHT22;10036;47.812;9.274;2023-01-16T15:50:05;2.60;99.90
19755;DHT22;10036;47.812;9.274;2023-01-16T15:52:35;2.60;99.90
19755;DHT22;10036;47.812;9.274;2023-01-16T15:55:11;2.60;99.90
19755;DHT22;10036;47.812;9.274;2023-01-16T15:57:44;2.60;99.90
19755;DHT22;10036;47.812;9.274;2023-01-16T16:00:23;2.60;99.90
19755;DHT22;10036;47.812;9.274;2023-01-16T16:02:52;2.60;99.90
19755;DHT22;10036;47.812;9.274;2023-01-16T16:05:22;2.60;99.90
19755;DHT22;10036;47.812;9.274;2023-01-16T16:07:49;2.80;99.90
19755;DHT22;10036;47.812;9.274;2023-01-16T16:10:19;2.90;99.90
19755;DHT22;10036;47.812;9.274;2023-01-16T16:13:03;2.90;99.90
19755;DHT22;10036;47.812;9.274;2023-01-16T16:15:31;2.90;99.90
19755;DHT22;10036;47.812;9.274;2023-01-16T16:18:17;2.90;99.90
19755;DHT22;10036;47.812;9.274;2023-01-16T16:20:46;2.90;99.90
19755;DHT22;10036;47.812;9.274;2023-01-16T16:23:16;2.90;99.90
19755;DHT22;10036;47.812;9.274;2023-01-16T16:25:48;3.00;99.90
19755;DHT22;10036;47.812;9.274;2023-01-16T16:28:21;3.10;99.90
19755;DHT22;10036;47.812;9.274;2023-01-16T16:30:55;3.30;99.90
19755;DHT22;10036;47.812;9.274;2023-01-16T16:33:23;3.50;99.90